Time;durP1;ratioP1;P1;durP2;ratioP2;P2;SDS_P1;SDS_P2;PMS_P1;PMS_P2;Temp;Humidity;BMP_temperature;BMP_pressure;BME280_temperature;BME280_humidity;BME280_pressure;Samples;Min_cycle;Max_cycle;Signal;HPM_P1;HPM_P2
2021/03/17 00:00:58;;;;;;;8.43;4.55;;;7.20;97.50;;;;;;5066772;28;20135;-74
2021/03/17 00:03:25;;;;;;;9.70;5.40;;;7.20;97.70;;;;;;5068756;28;20440;-73
2021/03/17 00:05:52;;;;;;;8.80;5.63;;;7.20;97.80;;;;;;5069561;28;20037;-73
2021/03/17 00:08:20;;;;;;;11.95;5.72;;;7.30;97.50;;;;;;5071002;28;20044;-73
2021/03/17 00:10:50;;;;;;;9.15;5.43;;;7.20;98.00;;;;;;5064276;28;20041;-72
2021/03/17 00:13:20;;;;;;;9.85;5.05;;;7.20;98.10;;;;;;5072118;28;20080;-72
2021/03/17 00:15:46;;;;;;;;;;;7.30;97.80;;;;;;5069502;28;20098;-72
2021/03/17 00:18:14;;;;;;;8.82;4.78;;;7.30;97.20;;;;;;5071433;28;19967;-72
2021/03/17 00:20:41;;;;;;;8.70;4.75;;;7.30;97.40;;;;;;5069876;28;20048;-73
2021/03/17 00:23:09;;;;;;;8.40;5.03;;;7.20;97.70;;;;;;5071115;28;20136;-72
2021/03/17 00:25:41;;;;;;;7.65;4.63;;;7.10;98.60;;;;;;5067891;28;20053;-72
2021/03/17 00:28:11;;;;;;;8.98;4.85;;;7.10;98.20;;;;;;5067840;28;20123;-72
2021/03/17 00:30:40;;;;;;;11.13;6.07;;;7.20;98.40;;;;;;5070522;28;20048;-72
2021/03/17 00:33:12;;;;;;;8.52;5.28;;;7.30;98.10;;;;;;5072058;28;20049;-73
2021/03/17 00:35:40;;;;;;;8.00;5.05;;;7.20;98.10;;;;;;5065789;28;20049;-74
2021/03/17 00:38:08;;;;;;;9.23;5.03;;;7.30;98.20;;;;;;5070825;28;20052;-72
2021/03/17 00:40:35;;;;;;;11.00;5.15;;;7.30;98.00;;;;;;5064592;28;20044;-73
2021/03/17 00:43:02;;;;;;;8.43;5.13;;;7.20;98.30;;;;;;5067732;28;20051;-72
2021/03/17 00:45:29;;;;;;;8.77;5.57;;;7.30;98.40;;;;;;5063442;28;20049;-72
2021/03/17 00:47:56;;;;;;;9.98;5.90;;;7.30;98.00;;;;;;5067923;28;20044;-72
2021/03/17 00:50:22;;;;;;;11.32;6.20;;;7.00;98.20;;;;;;5065561;28;20102;-72
2021/03/17 00:52:53;;;;;;;13.02;6.75;;;7.10;98.90;;;;;;5062728;28;20140;-72
2021/03/17 00:55:20;;;;;;;9.13;5.88;;;7.20;98.70;;;;;;5066602;28;20044;-74
2021/03/17 00:57:46;;;;;;;11.50;6.13;;;7.20;98.70;;;;;;5072884;28;20052;-72
2021/03/17 01:00:13;;;;;;;10.90;6.53;;;7.30;98.90;;;;;;5069845;28;20048;-73
2021/03/17 01:02:40;;;;;;;13.10;6.65;;;7.20;99.00;;;;;;5061850;28;20048;-72
2021/03/17 01:05:08;;;;;;;9.98;5.60;;;7.20;99.70;;;;;;5069824;28;20052;-72
2021/03/17 01:07:36;;;;;;;11.52;5.90;;;7.10;99.50;;;;;;5070023;28;20041;-72
2021/03/17 01:10:12;;;;;;;10.65;6.00;;;7.30;99.60;;;;;;5069830;28;20090;-72
2021/03/17 01:12:38;;;;;;;8.98;5.68;;;7.30;99.50;;;;;;5067513;28;20045;-73
2021/03/17 01:15:14;;;;;;;10.18;5.68;;;7.40;99.30;;;;;;5068959;28;20084;-72
2021/03/17 01:17:40;;;;;;;9.85;5.40;;;7.20;99.20;;;;;;5069189;28;20102;-72
2021/03/17 01:20:08;;;;;;;8.18;5.03;;;7.10;99.00;;;;;;5067359;28;20041;-73
2021/03/17 01:22:35;;;;;;;7.18;4.50;;;7.00;98.50;;;;;;5066571;28;20189;-73
2021/03/17 01:25:07;;;;;;;8.32;4.90;;;7.10;98.50;;;;;;5069666;28;20041;-74
2021/03/17 01:27:34;;;;;;;7.28;4.63;;;7.10;98.30;;;;;;5054860;28;20556;-73
2021/03/17 01:30:01;;;;;;;9.38;4.90;;;7.30;98.10;;;;;;5066716;28;20502;-73
2021/03/17 01:32:27;;;;;;;6.63;4.65;;;7.20;97.70;;;;;;5063428;28;20094;-73
2021/03/17 01:34:54;;;;;;;8.52;5.10;;;7.20;97.80;;;;;;5069518;28;20060;-73
2021/03/17 01:37:20;;;;;;;10.45;5.20;;;7.10;98.10;;;;;;5067999;28;20056;-73
2021/03/17 01:39:46;;;;;;;6.40;4.55;;;7.10;98.40;;;;;;5065415;28;20048;-73
2021/03/17 01:42:13;;;;;;;7.53;4.78;;;7.10;98.70;;;;;;5067819;28;20052;-73
2021/03/17 01:44:40;;;;;;;8.05;4.70;;;7.00;98.00;;;;;;5068207;28;20048;-72
2021/03/17 01:47:06;;;;;;;6.97;4.80;;;7.00;98.40;;;;;;5068684;28;20044;-72
2021/03/17 01:49:32;;;;;;;9.50;5.07;;;7.10;98.10;;;;;;5066030;28;20102;-74
2021/03/17 01:51:59;;;;;;;7.72;4.85;;;7.20;98.20;;;;;;5071959;28;20040;-72
2021/03/17 01:54:26;;;;;;;8.52;5.25;;;7.00;97.70;;;;;;5069197;28;20091;-72
2021/03/17 01:56:52;;;;;;;8.98;5.45;;;7.00;98.30;;;;;;5065278;28;20530;-73
2021/03/17 01:59:19;;;;;;;9.25;5.70;;;7.10;98.20;;;;;;5071123;28;20505;-73
2021/03/17 02:01:46;;;;;;;9.07;5.05;;;7.00;98.40;;;;;;5067441;28;20075;-73
2021/03/17 02:04:13;;;;;;;9.93;5.28;;;7.00;98.30;;;;;;5066459;28;20503;-73
2021/03/17 02:06:39;;;;;;;14.50;5.97;;;7.10;98.30;;;;;;5072623;28;20468;-73
2021/03/17 02:09:06;;;;;;;9.32;5.85;;;7.10;98.30;;;;;;5066068;28;20098;-73
2021/03/17 02:11:32;;;;;;;12.60;7.10;;;7.00;98.20;;;;;;5067536;28;20080;-73
2021/03/17 02:14:14;;;;;;;11.35;6.57;;;7.10;98.70;;;;;;5071180;28;20056;-73
2021/03/17 02:16:52;;;;;;;11.88;7.35;;;6.90;98.90;;;;;;5066444;28;20044;-73
2021/03/17 02:19:31;;;;;;;14.50;8.13;;;6.80;99.60;;;;;;5062474;28;20539;-73
2021/03/17 02:22:20;;;;;;;12.77;7.53;;;6.70;99.90;;;;;;5066960;28;20067;-73
2021/03/17 02:25:01;;;;;;;11.45;6.68;;;6.90;99.90;;;;;;5069628;28;20036;-73
2021/03/17 02:27:46;;;;;;;10.15;6.10;;;6.90;99.90;;;;;;5068933;28;20470;-73
2021/03/17 02:30:34;;;;;;;11.60;6.30;;;6.90;99.90;;;;;;5065176;28;20463;-72
2021/03/17 02:33:24;;;;;;;10.07;6.15;;;6.90;99.90;;;;;;5069254;28;20056;-72
2021/03/17 02:35:55;;;;;;;10.70;5.95;;;7.00;99.90;;;;;;5070755;28;20052;-72
2021/03/17 02:38:24;;;;;;;10.40;6.10;;;7.00;99.90;;;;;;5066500;28;20102;-73
2021/03/17 02:40:53;;;;;;;8.80;5.45;;;6.80;99.90;;;;;;5059546;28;20438;-72
2021/03/17 02:43:27;;;;;;;11.13;6.10;;;7.00;99.90;;;;;;5060883;28;20174;-73
2021/03/17 02:46:09;;;;;;;10.93;6.25;;;7.00;99.90;;;;;;5067707;28;20044;-73
2021/03/17 02:48:43;;;;;;;10.05;6.10;;;6.90;99.90;;;;;;5063698;28;20114;-73
2021/03/17 02:51:21;;;;;;;11.60;7.18;;;6.90;99.90;;;;;;5067688;28;20053;-73
2021/03/17 02:53:50;;;;;;;9.30;6.20;;;6.90;99.90;;;;;;5061026;28;20094;-73
2021/03/17 02:56:18;;;;;;;12.02;6.60;;;6.90;99.90;;;;;;5062648;28;20091;-73
2021/03/17 02:58:47;;;;;;;10.38;6.30;;;7.00;99.90;;;;;;5061961;28;20499;-72
2021/03/17 03:01:19;;;;;;;12.65;6.07;;;7.10;99.90;;;;;;5067278;28;20131;-73
2021/03/17 03:03:47;;;;;;;10.73;6.07;;;7.10;99.90;;;;;;5064136;28;20137;-72
2021/03/17 03:06:16;;;;;;;13.65;7.35;;;7.10;99.90;;;;;;5061038;28;20121;-73
2021/03/17 03:08:44;;;;;;;12.52;7.03;;;6.90;99.50;;;;;;5067760;28;20462;-73
2021/03/17 03:11:13;;;;;;;11.73;7.20;;;7.00;99.90;;;;;;5064334;28;20055;-73
2021/03/17 03:13:41;;;;;;;12.45;7.07;;;7.00;99.90;;;;;;5064563;28;20044;-73
2021/03/17 03:16:12;;;;;;;13.07;7.05;;;7.00;99.90;;;;;;5057536;28;20078;-73
2021/03/17 03:18:41;;;;;;;14.57;7.80;;;7.00;99.90;;;;;;5063525;28;20045;-74
2021/03/17 03:21:10;;;;;;;12.93;6.97;;;6.80;99.90;;;;;;5061256;28;20049;-74
2021/03/17 03:23:37;;;;;;;13.38;7.68;;;6.70;99.90;;;;;;5053425;28;20405;-73
2021/03/17 03:26:05;;;;;;;14.50;7.25;;;6.70;99.90;;;;;;5058362;28;20046;-73
2021/03/17 03:28:32;;;;;;;14.50;8.07;;;6.60;99.90;;;;;;5063447;28;20075;-73
2021/03/17 03:30:59;;;;;;;12.95;7.65;;;6.60;99.90;;;;;;5067914;28;20082;-73
2021/03/17 03:33:26;;;;;;;13.90;7.85;;;6.50;99.90;;;;;;5064403;28;20049;-73
2021/03/17 03:35:53;;;;;;;14.73;8.18;;;6.50;99.90;;;;;;5062902;28;20051;-73
2021/03/17 03:38:22;;;;;;;13.73;8.00;;;6.50;99.90;;;;;;5061042;28;20068;-73
2021/03/17 03:40:48;;;;;;;14.85;8.75;;;6.30;99.90;;;;;;5059377;28;20037;-73
2021/03/17 03:43:15;;;;;;;15.27;9.07;;;6.40;99.90;;;;;;5059392;28;20534;-73
2021/03/17 03:45:42;;;;;;;15.82;8.50;;;6.50;99.90;;;;;;5061949;28;20460;-73
2021/03/17 03:48:10;;;;;;;16.75;8.70;;;6.40;99.90;;;;;;5062094;28;20059;-73
2021/03/17 03:50:45;;;;;;;18.23;9.20;;;6.40;99.90;;;;;;5067562;28;20086;-74
2021/03/17 03:53:31;;;;;;;18.00;8.65;;;6.40;99.90;;;;;;5059652;28;20053;-73
2021/03/17 03:56:04;;;;;;;19.98;9.15;;;6.40;99.90;;;;;;5067336;28;20048;-73
2021/03/17 03:58:42;;;;;;;17.65;10.13;;;6.50;99.90;;;;;;5065428;28;20077;-74
2021/03/17 04:01:11;;;;;;;17.13;9.75;;;6.50;99.90;;;;;;5057907;28;20118;-73
2021/03/17 04:03:42;;;;;;;20.70;11.00;;;6.50;99.90;;;;;;5060585;28;20109;-73
2021/03/17 04:06:11;;;;;;;18.83;9.63;;;6.50;99.90;;;;;;5070056;28;20060;-73
2021/03/17 04:08:44;;;;;;;22.25;11.38;;;6.50;99.90;;;;;;5066174;28;20048;-73
2021/03/17 04:11:13;;;;;;;23.90;10.80;;;6.50;99.90;;;;;;5066024;28;20396;-74
2021/03/17 04:13:41;;;;;;;17.75;9.55;;;6.40;99.90;;;;;;5066270;28;20048;-74
2021/03/17 04:16:11;;;;;;;19.73;10.60;;;6.30;99.90;;;;;;5067347;28;20098;-73
2021/03/17 04:18:42;;;;;;;23.83;10.93;;;6.40;99.90;;;;;;5061976;28;20110;-73
2021/03/17 04:21:19;;;;;;;;;;;6.40;99.90;;;;;;5062659;28;20150;-74
2021/03/17 04:23:47;;;;;;;22.02;10.43;;;6.30;99.90;;;;;;5058456;28;19925;-73
2021/03/17 04:26:15;;;;;;;19.83;10.13;;;6.20;99.90;;;;;;5062447;28;20102;-74
2021/03/17 04:28:44;;;;;;;20.95;10.20;;;6.20;99.90;;;;;;5069583;28;20049;-74
2021/03/17 04:31:11;;;;;;;21.20;10.48;;;6.20;99.90;;;;;;5065167;28;20190;-74
2021/03/17 04:33:38;;;;;;;19.08;10.40;;;6.10;99.90;;;;;;5066753;28;20085;-73
2021/03/17 04:36:06;;;;;;;21.02;11.02;;;6.10;99.90;;;;;;5071534;28;20136;-73
2021/03/17 04:38:33;;;;;;;23.35;10.60;;;6.00;99.90;;;;;;5068498;28;20067;-74
2021/03/17 04:41:00;;;;;;;22.80;11.82;;;6.10;99.90;;;;;;5058074;28;20052;-72
2021/03/17 04:43:27;;;;;;;22.25;11.13;;;6.10;99.90;;;;;;5072151;28;20476;-72
2021/03/17 04:45:54;;;;;;;20.83;10.93;;;6.10;99.90;;;;;;5067088;28;20110;-73
2021/03/17 04:48:22;;;;;;;24.55;11.48;;;6.10;99.90;;;;;;5071386;28;20127;-72
2021/03/17 04:50:51;;;;;;;23.95;12.02;;;6.10;99.90;;;;;;5069281;28;20130;-73
2021/03/17 04:53:18;;;;;;;25.33;11.63;;;6.10;99.90;;;;;;5063979;28;20061;-72
2021/03/17 04:55:44;;;;;;;23.00;11.90;;;6.20;99.90;;;;;;5072904;28;20569;-72
2021/03/17 04:58:20;;;;;;;24.45;12.20;;;6.10;99.90;;;;;;5069311;28;20098;-73
2021/03/17 05:00:48;;;;;;;23.67;12.60;;;6.10;99.90;;;;;;5066979;28;20049;-73
2021/03/17 05:03:20;;;;;;;25.92;11.77;;;6.10;99.90;;;;;;5063432;28;20056;-73
2021/03/17 05:05:50;;;;;;;25.80;12.90;;;6.20;99.90;;;;;;5072492;28;20075;-73
2021/03/17 05:08:19;;;;;;;26.65;12.18;;;6.30;99.90;;;;;;5068123;28;20102;-73
2021/03/17 05:10:47;;;;;;;28.02;12.57;;;6.10;99.90;;;;;;5059579;28;20052;-72
2021/03/17 05:13:15;;;;;;;26.90;13.35;;;6.10;99.90;;;;;;5069059;28;20048;-73
2021/03/17 05:15:45;;;;;;;29.23;13.77;;;6.20;99.90;;;;;;5061851;28;20044;-73
2021/03/17 05:18:17;;;;;;;28.77;13.88;;;6.20;99.90;;;;;;5069690;28;20040;-73
2021/03/17 05:20:47;;;;;;;27.15;13.68;;;6.20;99.90;;;;;;5068550;28;20048;-74
2021/03/17 05:23:14;;;;;;;28.63;13.48;;;6.10;99.90;;;;;;5067172;28;20048;-73
2021/03/17 05:25:41;;;;;;;27.30;12.80;;;6.10;99.90;;;;;;5070170;28;20384;-73
2021/03/17 05:28:08;;;;;;;26.27;12.93;;;6.10;99.90;;;;;;5068595;28;20064;-74
2021/03/17 05:30:37;;;;;;;24.73;12.90;;;6.30;99.90;;;;;;5069348;28;21441;-73
2021/03/17 05:33:07;;;;;;;30.73;12.87;;;6.30;99.90;;;;;;5069228;28;20122;-73
2021/03/17 05:35:34;;;;;;;26.85;13.40;;;6.30;99.90;;;;;;5066663;28;20120;-74
2021/03/17 05:38:01;;;;;;;30.38;13.35;;;6.30;99.90;;;;;;5072501;28;20052;-73
2021/03/17 05:40:29;;;;;;;26.45;13.73;;;6.40;99.90;;;;;;5063035;28;20501;-73
2021/03/17 05:42:59;;;;;;;25.70;13.38;;;6.40;99.90;;;;;;5069024;28;20495;-73
2021/03/17 05:45:27;;;;;;;24.45;12.95;;;6.30;99.90;;;;;;5069234;28;20044;-73
2021/03/17 05:48:07;;;;;;;27.55;13.95;;;6.30;99.90;;;;;;5065711;28;20041;-73
2021/03/17 05:50:34;;;;;;;26.58;12.75;;;6.30;99.90;;;;;;5068182;28;20056;-73
2021/03/17 05:53:00;;;;;;;26.10;13.35;;;6.40;99.90;;;;;;5060365;28;20555;-72
2021/03/17 05:55:27;;;;;;;26.35;12.82;;;6.50;99.90;;;;;;5066341;28;20044;-73
2021/03/17 05:57:58;;;;;;;26.25;13.77;;;6.40;99.90;;;;;;5071761;28;20055;-73
2021/03/17 06:00:25;;;;;;;26.27;12.63;;;6.40;99.90;;;;;;5063027;28;20047;-73
2021/03/17 06:02:53;;;;;;;28.38;12.73;;;6.40;99.90;;;;;;5057041;28;20040;-73
2021/03/17 06:05:21;;;;;;;27.30;12.50;;;6.40;99.90;;;;;;5070455;28;20391;-73
2021/03/17 06:08:00;;;;;;;25.10;12.75;;;6.40;99.90;;;;;;5065273;28;20103;-73
2021/03/17 06:10:27;;;;;;;25.27;11.65;;;6.40;99.90;;;;;;5063193;28;20458;-74
2021/03/17 06:13:00;;;;;;;23.98;12.27;;;6.40;99.90;;;;;;5070852;28;20071;-74
2021/03/17 06:15:28;;;;;;;24.90;13.00;;;6.40;99.90;;;;;;5067453;28;20080;-74
2021/03/17 06:18:01;;;;;;;29.05;11.95;;;6.50;99.90;;;;;;5067750;28;20178;-73
2021/03/17 06:20:28;;;;;;;26.63;12.93;;;6.60;99.90;;;;;;5068324;28;20044;-73
2021/03/17 06:22:55;;;;;;;27.10;12.93;;;6.60;99.90;;;;;;5065085;28;20052;-74
2021/03/17 06:25:22;;;;;;;27.23;11.43;;;6.50;99.90;;;;;;5066794;28;20067;-73
2021/03/17 06:27:50;;;;;;;24.73;12.10;;;6.40;99.90;;;;;;5065764;28;20044;-73
2021/03/17 06:30:18;;;;;;;21.83;10.60;;;6.50;99.90;;;;;;5062382;28;20048;-73
2021/03/17 06:32:44;;;;;;;22.60;10.82;;;6.80;99.90;;;;;;5068503;28;20051;-73
2021/03/17 06:35:22;;;;;;;25.63;12.15;;;7.80;99.90;;;;;;5069205;28;20491;-73
2021/03/17 06:37:53;;;;;;;35.75;10.20;;;8.30;99.90;;;;;;5066023;28;20102;-73
2021/03/17 06:40:23;;;;;;;20.17;10.05;;;8.40;99.90;;;;;;5063344;28;20044;-73
2021/03/17 06:42:49;;;;;;;18.77;10.10;;;8.50;99.90;;;;;;5064074;28;20704;-73
2021/03/17 06:45:37;;;;;;;19.25;10.45;;;8.40;99.90;;;;;;5063413;28;20453;-73
2021/03/17 06:48:22;;;;;;;21.92;10.65;;;7.80;99.90;;;;;;5064602;28;20048;-73
2021/03/17 06:51:07;;;;;;;19.58;10.10;;;7.50;99.90;;;;;;5067201;28;20054;-73
2021/03/17 06:53:45;;;;;;;21.98;11.27;;;7.30;99.90;;;;;;5060637;28;20079;-73
2021/03/17 06:56:17;;;;;;;19.80;9.38;;;6.90;99.90;;;;;;5067979;28;20052;-72
2021/03/17 06:58:53;;;;;;;20.33;9.27;;;6.80;99.90;;;;;;5068572;28;20094;-73
2021/03/17 07:01:45;;;;;;;19.70;7.90;;;6.70;99.90;;;;;;5062500;28;20048;-73
2021/03/17 07:04:16;;;;;;;17.60;8.00;;;6.90;99.90;;;;;;5065319;28;20082;-74
2021/03/17 07:06:45;;;;;;;13.50;8.27;;;7.00;99.90;;;;;;5066655;28;20049;-74
2021/03/17 07:09:20;;;;;;;16.88;8.48;;;6.90;99.90;;;;;;5064839;28;20064;-74
2021/03/17 07:11:49;;;;;;;16.13;8.40;;;6.90;99.90;;;;;;5066338;28;20040;-74
2021/03/17 07:14:24;;;;;;;15.55;8.18;;;6.90;99.90;;;;;;5067549;28;20063;-73
2021/03/17 07:16:50;;;;;;;16.55;8.32;;;6.90;99.90;;;;;;5065151;28;20053;-73
2021/03/17 07:19:37;;;;;;;14.30;8.18;;;7.00;99.90;;;;;;5066827;28;20076;-73
2021/03/17 07:22:09;;;;;;;16.33;8.32;;;7.10;99.90;;;;;;5067556;28;20063;-74
2021/03/17 07:24:37;;;;;;;13.70;7.25;;;7.10;99.90;;;;;;5064775;28;20487;-75
2021/03/17 07:27:23;;;;;;;14.77;7.30;;;7.10;99.90;;;;;;5067649;28;20095;-74
2021/03/17 07:29:58;;;;;;;12.05;6.80;;;7.20;99.90;;;;;;5066960;28;20086;-74
2021/03/17 07:32:59;;;;;;;13.77;6.88;;;7.30;99.90;;;;;;5061731;28;20053;-75
2021/03/17 07:35:35;;;;;;;14.68;6.18;;;7.70;99.60;;;;;;5057918;28;20769;-75
2021/03/17 07:38:13;;;;;;;13.43;6.63;;;7.80;97.00;;;;;;5066265;28;20102;-74
2021/03/17 07:40:47;;;;;;;14.05;7.35;;;7.90;98.10;;;;;;5059498;28;20425;-74
2021/03/17 07:43:16;;;;;;;15.02;6.93;;;8.10;96.40;;;;;;5062788;28;20479;-74
2021/03/17 07:45:42;;;;;;;17.38;7.05;;;8.10;95.40;;;;;;5055132;28;20071;-74
2021/03/17 07:48:12;;;;;;;13.75;6.72;;;7.70;95.90;;;;;;5065147;28;20048;-74
2021/03/17 07:50:40;;;;;;;14.77;6.55;;;8.40;95.90;;;;;;5067340;28;20049;-74
2021/03/17 07:53:15;;;;;;;13.07;6.60;;;9.10;93.70;;;;;;5063272;28;20037;-74
2021/03/17 07:55:44;;;;;;;14.90;7.20;;;10.00;90.50;;;;;;5056796;28;20110;-74
2021/03/17 07:58:13;;;;;;;13.32;7.05;;;9.60;90.10;;;;;;5058903;28;20490;-74
2021/03/17 08:00:42;;;;;;;14.65;7.45;;;8.80;91.20;;;;;;5060061;28;20132;-74
2021/03/17 08:03:12;;;;;;;13.95;7.80;;;8.80;92.80;;;;;;5060861;28;20059;-74
2021/03/17 08:05:39;;;;;;;14.60;6.90;;;9.00;91.50;;;;;;5068708;28;20056;-74
2021/03/17 08:08:11;;;;;;;16.20;7.20;;;9.20;90.80;;;;;;5066818;28;20045;-74
2021/03/17 08:10:40;;;;;;;15.98;8.25;;;8.80;91.70;;;;;;5066787;28;20072;-74
2021/03/17 08:13:08;;;;;;;13.10;6.93;;;8.60;91.90;;;;;;5073937;28;20529;-74
2021/03/17 08:15:36;;;;;;;14.57;7.32;;;9.60;89.40;;;;;;5069746;28;20450;-74
2021/03/17 08:18:23;;;;;;;12.88;6.60;;;10.90;84.10;;;;;;5069438;28;20181;-74
2021/03/17 08:20:49;;;;;;;15.52;7.88;;;10.60;79.40;;;;;;5070196;28;20502;-75
2021/03/17 08:23:46;;;;;;;14.48;7.22;;;9.90;84.40;;;;;;5066787;28;20533;-74
2021/03/17 08:26:20;;;;;;;16.45;7.90;;;9.50;85.90;;;;;;5067945;28;20128;-74
2021/03/17 08:28:51;;;;;;;13.88;7.25;;;8.90;86.70;;;;;;5070127;28;20052;-73
2021/03/17 08:31:36;;;;;;;15.13;7.80;;;8.90;87.50;;;;;;5063651;28;20142;-74
2021/03/17 08:34:18;;;;;;;14.38;7.40;;;9.20;87.60;;;;;;5067917;28;20070;-74
2021/03/17 08:36:47;;;;;;;12.88;6.85;;;9.20;87.30;;;;;;5061355;28;20060;-74
2021/03/17 08:39:30;;;;;;;14.75;7.55;;;8.90;89.60;;;;;;5067255;28;20697;-73
2021/03/17 08:42:01;;;;;;;13.13;7.95;;;8.30;90.00;;;;;;5065435;28;20048;-73
2021/03/17 08:44:39;;;;;;;15.50;8.20;;;8.20;90.60;;;;;;5063266;28;20049;-74
2021/03/17 08:47:19;;;;;;;13.75;7.78;;;8.40;90.80;;;;;;5066046;28;20041;-73
2021/03/17 08:49:51;;;;;;;15.70;8.25;;;8.60;91.30;;;;;;5070018;28;20094;-73
2021/03/17 08:52:19;;;;;;;18.00;9.02;;;8.80;90.40;;;;;;5070577;28;20087;-73
2021/03/17 08:55:00;;;;;;;17.58;8.85;;;8.80;89.70;;;;;;5066644;28;20052;-73
2021/03/17 08:57:53;;;;;;;17.10;8.70;;;8.60;90.90;;;;;;5068933;28;20454;-73
2021/03/17 09:00:52;;;;;;;15.50;7.80;;;8.40;91.40;;;;;;5062847;28;20468;-74
2021/03/17 09:03:31;;;;;;;14.98;8.02;;;8.50;91.60;;;;;;5065360;28;20041;-74
2021/03/17 09:06:33;;;;;;;15.35;8.50;;;8.70;91.00;;;;;;5068966;28;20075;-74
2021/03/17 09:09:16;;;;;;;15.43;8.20;;;8.60;88.10;;;;;;4984059;28;20093;-73
2021/03/17 09:11:43;;;;;;;15.32;7.53;;;9.00;89.00;;;;;;5062289;28;20052;-75
2021/03/17 09:14:19;;;;;;;18.25;8.60;;;9.10;88.00;;;;;;5066915;28;20049;-76
2021/03/17 09:17:10;;;;;;;20.50;8.60;;;8.90;88.70;;;;;;5065998;28;20067;-75
2021/03/17 09:20:01;;;;;;;15.88;7.68;;;8.60;89.90;;;;;;5061518;28;20103;-74
2021/03/17 09:22:36;;;;;;;14.30;7.00;;;8.40;89.50;;;;;;5066398;28;20049;-73
2021/03/17 09:25:11;;;;;;;15.50;7.30;;;8.40;88.80;;;;;;5068072;28;20079;-71
2021/03/17 09:28:01;;;;;;;17.38;8.00;;;8.30;88.40;;;;;;5070667;28;20098;-70
2021/03/17 09:30:32;;;;;;;12.65;7.10;;;8.30;90.50;;;;;;5061177;28;20156;-72
2021/03/17 09:33:06;;;;;;;13.93;7.25;;;8.30;90.00;;;;;;5068723;28;20105;-74
2021/03/17 09:35:35;;;;;;;12.27;6.70;;;8.10;90.40;;;;;;5070047;28;20123;-75
2021/03/17 09:38:04;;;;;;;15.15;6.72;;;8.10;90.90;;;;;;5060674;28;20936;-73
2021/03/17 09:40:34;;;;;;;11.45;6.15;;;7.90;90.50;;;;;;5042821;28;20381;-74
2021/03/17 09:43:01;;;;;;;11.52;6.18;;;7.80;91.10;;;;;;5047195;28;20079;-74
2021/03/17 09:45:28;;;;;;;15.38;5.78;;;7.60;91.00;;;;;;5057982;28;20136;-74
2021/03/17 09:47:56;;;;;;;10.80;5.82;;;7.30;92.70;;;;;;5057927;28;20542;-74
2021/03/17 09:50:25;;;;;;;13.10;6.13;;;7.20;93.40;;;;;;5067051;28;20073;-74
2021/03/17 09:52:52;;;;;;;11.25;5.68;;;7.10;94.60;;;;;;5071184;28;20059;-74
2021/03/17 09:55:33;;;;;;;11.95;6.05;;;7.10;95.90;;;;;;5061614;28;20049;-73
2021/03/17 09:58:05;;;;;;;14.68;5.82;;;7.20;97.40;;;;;;5068025;28;20070;-73
2021/03/17 10:00:33;;;;;;;13.45;5.90;;;7.10;98.40;;;;;;5065882;28;20060;-73
2021/03/17 10:03:02;;;;;;;15.30;6.00;;;6.80;99.90;;;;;;5061604;28;20465;-73
2021/03/17 10:05:30;;;;;;;11.98;7.18;;;6.80;99.90;;;;;;5068024;28;20356;-74
2021/03/17 10:07:57;;;;;;;16.60;7.18;;;7.20;99.90;;;;;;5071401;28;20094;-74
2021/03/17 10:10:24;;;;;;;9.50;5.75;;;8.10;99.90;;;;;;5063904;28;20074;-74
2021/03/17 10:12:51;;;;;;;13.60;6.30;;;8.10;98.60;;;;;;5064825;28;20045;-74
2021/03/17 10:15:23;;;;;;;12.75;5.32;;;8.30;98.90;;;;;;5066916;28;20071;-74
2021/03/17 10:17:52;;;;;;;13.30;6.00;;;7.90;96.00;;;;;;5067825;28;20476;-74
2021/03/17 10:20:23;;;;;;;11.10;4.70;;;7.70;97.60;;;;;;5067570;28;20450;-74
2021/03/17 10:22:55;;;;;;;11.35;5.45;;;7.70;98.30;;;;;;5070860;28;20036;-74
2021/03/17 10:25:23;;;;;;;14.85;5.70;;;7.70;97.50;;;;;;5065200;28;20122;-74
2021/03/17 10:27:58;;;;;;;12.60;5.20;;;7.80;98.20;;;;;;5069412;28;20037;-74
2021/03/17 10:30:31;;;;;;;12.50;5.90;;;7.60;97.70;;;;;;5066085;28;20103;-73
2021/03/17 10:33:01;;;;;;;12.15;6.03;;;7.30;98.60;;;;;;5060558;28;20055;-73
2021/03/17 10:35:30;;;;;;;12.93;6.03;;;7.30;99.60;;;;;;5064032;28;20057;-74
2021/03/17 10:37:59;;;;;;;12.38;5.45;;;7.40;99.70;;;;;;5065751;28;20123;-73
2021/03/17 10:40:28;;;;;;;12.25;5.47;;;7.40;99.00;;;;;;5058376;28;20041;-74
2021/03/17 10:43:05;;;;;;;10.07;5.32;;;7.30;99.30;;;;;;5070172;28;20048;-75
2021/03/17 10:45:50;;;;;;;8.27;5.10;;;7.40;99.80;;;;;;5063015;28;20048;-74
2021/03/17 10:48:27;;;;;;;8.60;5.05;;;7.70;98.40;;;;;;5069426;28;20188;-73
2021/03/17 10:50:56;;;;;;;10.75;5.93;;;8.30;96.60;;;;;;5057812;28;20071;-75
2021/03/17 10:53:26;;;;;;;14.95;5.40;;;8.60;94.70;;;;;;5062894;28;20059;-74
2021/03/17 10:55:53;;;;;;;;;;;9.00;94.90;;;;;;5068577;28;20337;-75
2021/03/17 10:58:22;;;;;;;12.13;5.22;;;9.50;93.30;;;;;;5068698;28;19920;-74
2021/03/17 11:00:54;;;;;;;10.88;5.65;;;9.40;92.20;;;;;;5064807;28;20052;-75
2021/03/17 11:03:25;;;;;;;12.93;6.00;;;8.80;93.80;;;;;;5062780;28;20416;-74
2021/03/17 11:06:09;;;;;;;10.80;5.88;;;8.50;93.50;;;;;;5069339;28;20051;-73
2021/03/17 11:08:35;;;;;;;12.15;6.47;;;8.00;93.70;;;;;;5067177;28;20131;-73
2021/03/17 11:11:10;;;;;;;11.02;6.15;;;8.00;96.90;;;;;;5061149;28;20052;-73
2021/03/17 11:13:38;;;;;;;11.35;6.35;;;7.90;98.60;;;;;;5051169;28;20045;-73
2021/03/17 11:16:11;;;;;;;8.95;4.93;;;7.70;99.90;;;;;;5061671;28;20040;-74
2021/03/17 11:18:53;;;;;;;9.55;5.43;;;6.60;99.90;;;;;;5066067;28;20052;-75
2021/03/17 11:21:26;;;;;;;7.68;4.70;;;6.30;99.90;;;;;;5067796;28;20045;-74
2021/03/17 11:23:55;;;;;;;8.52;4.93;;;6.60;99.90;;;;;;5059207;28;20395;-74
2021/03/17 11:26:23;;;;;;;8.63;4.85;;;6.70;99.90;;;;;;5049357;28;20452;-75
2021/03/17 11:28:50;;;;;;;10.35;4.88;;;6.90;99.90;;;;;;5068241;28;20128;-75
2021/03/17 11:31:30;;;;;;;8.20;4.82;;;7.20;99.90;;;;;;5064161;28;20049;-75
2021/03/17 11:33:57;;;;;;;9.52;5.30;;;7.50;99.90;;;;;;5062881;28;20471;-74
2021/03/17 11:36:26;;;;;;;7.53;4.50;;;7.90;99.90;;;;;;5058938;28;20859;-74
2021/03/17 11:38:54;;;;;;;9.63;6.20;;;8.60;99.90;;;;;;5057221;28;20059;-73
2021/03/17 11:41:21;;;;;;;10.55;5.53;;;8.90;99.90;;;;;;5066336;28;20068;-73
2021/03/17 11:43:47;;;;;;;9.00;5.43;;;8.50;99.90;;;;;;5064427;28;20074;-73
2021/03/17 11:46:19;;;;;;;8.95;5.53;;;8.40;99.90;;;;;;5060643;28;20440;-75
2021/03/17 11:48:54;;;;;;;9.40;4.78;;;10.30;99.90;;;;;;5066675;28;20123;-77
2021/03/17 11:51:22;;;;;;;9.02;5.68;;;12.60;91.90;;;;;;5060473;28;20060;-79
2021/03/17 11:53:49;;;;;;;9.48;5.35;;;13.20;82.70;;;;;;5054548;28;20166;-77
2021/03/17 11:56:16;;;;;;;8.88;5.10;;;12.40;83.50;;;;;;5048277;28;20131;-77
2021/03/17 11:58:43;;;;;;;6.57;3.85;;;11.60;81.50;;;;;;5050048;28;20063;-78
2021/03/17 12:01:11;;;;;;;7.53;4.53;;;10.80;82.00;;;;;;5051745;28;21033;-78
2021/03/17 12:03:46;;;;;;;7.60;4.50;;;10.20;82.20;;;;;;5049193;28;20052;-78
2021/03/17 12:06:13;;;;;;;8.52;5.00;;;9.80;85.90;;;;;;5055374;28;21243;-77
2021/03/17 12:08:40;;;;;;;8.02;4.68;;;9.80;88.60;;;;;;5054700;28;20053;-79
2021/03/17 12:11:17;;;;;;;8.40;3.95;;;9.60;87.60;;;;;;5057326;28;20079;-77
2021/03/17 12:13:44;;;;;;;7.20;4.15;;;9.20;88.90;;;;;;5050594;28;20059;-77
2021/03/17 12:16:12;;;;;;;5.13;2.97;;;9.40;88.90;;;;;;5052402;28;20053;-77
2021/03/17 12:18:39;;;;;;;5.15;2.78;;;9.30;87.30;;;;;;5054136;28;20057;-78
2021/03/17 12:21:05;;;;;;;3.45;2.33;;;9.80;86.90;;;;;;5051494;28;20404;-77
2021/03/17 12:23:32;;;;;;;4.93;2.45;;;9.50;84.30;;;;;;5051045;28;20392;-79
2021/03/17 12:25:59;;;;;;;3.50;2.15;;;10.10;80.50;;;;;;5050859;28;20053;-77
2021/03/17 12:28:25;;;;;;;2.97;2.35;;;9.70;80.20;;;;;;5052011;28;20500;-77
2021/03/17 12:30:51;;;;;;;4.13;2.20;;;9.40;82.20;;;;;;5050196;28;20412;-79
2021/03/17 12:33:18;;;;;;;2.45;1.83;;;9.00;84.60;;;;;;5049516;28;20057;-78
2021/03/17 12:35:44;;;;;;;4.32;1.85;;;8.20;88.80;;;;;;5052176;28;20079;-77
2021/03/17 12:38:12;;;;;;;2.70;1.65;;;7.60;91.40;;;;;;5052268;28;20071;-79
2021/03/17 12:40:38;;;;;;;2.78;1.90;;;7.30;94.70;;;;;;5055267;28;21068;-76
2021/03/17 12:43:06;;;;;;;2.88;2.00;;;6.90;99.90;;;;;;5052978;28;20064;-85
2021/03/17 12:45:41;;;;;;;4.40;2.05;;;6.70;99.90;;;;;;5052709;28;20130;-81
2021/03/17 12:48:09;;;;;;;3.30;2.28;;;6.20;99.90;;;;;;5054040;28;20550;-79
2021/03/17 12:50:36;;;;;;;2.65;2.00;;;6.20;99.90;;;;;;5049904;28;20049;-75
2021/03/17 12:53:02;;;;;;;3.95;2.60;;;6.00;99.90;;;;;;5051856;28;20145;-75
2021/03/17 12:55:28;;;;;;;6.20;2.88;;;6.10;99.90;;;;;;5050039;28;20052;-76
2021/03/17 12:57:55;;;;;;;7.72;2.00;;;6.20;99.90;;;;;;5053885;28;20056;-75
2021/03/17 13:00:23;;;;;;;5.95;2.72;;;6.10;99.90;;;;;;5051318;28;20141;-77
2021/03/17 13:02:51;;;;;;;5.28;2.33;;;5.80;99.90;;;;;;5050795;28;20134;-78
2021/03/17 13:05:19;;;;;;;3.95;2.55;;;5.80;99.90;;;;;;5050982;28;20686;-75
2021/03/17 13:07:46;;;;;;;3.05;1.77;;;5.80;99.90;;;;;;5053141;28;21136;-79